sensor_id;sensor_type;location;lat;lon;timestamp;P1;durP1;ratioP1;P2;durP2;ratioP2
33108;SDS011;19481;51.118;6.940;2023-03-22T00:01:38;8.63;;;3.35;;
33108;SDS011;19481;51.118;6.940;2023-03-22T00:06:40;6.50;;;3.60;;
33108;SDS011;19481;51.118;6.940;2023-03-22T00:11:43;9.63;;;3.60;;
33108;SDS011;19481;51.118;6.940;2023-03-22T00:16:45;8.30;;;3.40;;
33108;SDS011;19481;51.118;6.940;2023-03-22T00:21:48;7.00;;;3.83;;
33108;SDS011;19481;51.118;6.940;2023-03-22T00:26:51;5.85;;;3.75;;
33108;SDS011;19481;51.118;6.940;2023-03-22T00:31:53;5.60;;;3.97;;
33108;SDS011;19481;51.118;6.940;2023-03-22T00:36:55;5.03;;;4.05;;
33108;SDS011;19481;51.118;6.940;2023-03-22T00:41:58;5.35;;;4.03;;
33108;SDS011;19481;51.118;6.940;2023-03-22T00:46:59;6.22;;;3.88;;
33108;SDS011;19481;51.118;6.940;2023-03-22T00:52:01;7.47;;;4.38;;
33108;SDS011;19481;51.118;6.940;2023-03-22T00:57:04;4.63;;;3.70;;
33108;SDS011;19481;51.118;6.940;2023-03-22T01:02:05;9.45;;;4.43;;
33108;SDS011;19481;51.118;6.940;2023-03-22T01:07:07;6.07;;;4.65;;
33108;SDS011;19481;51.118;6.940;2023-03-22T01:12:10;7.13;;;4.10;;
33108;SDS011;19481;51.118;6.940;2023-03-22T01:17:12;6.90;;;4.65;;
33108;SDS011;19481;51.118;6.940;2023-03-22T01:22:14;9.75;;;4.68;;
33108;SDS011;19481;51.118;6.940;2023-03-22T01:27:16;7.22;;;4.40;;
33108;SDS011;19481;51.118;6.940;2023-03-22T01:32:18;10.02;;;4.55;;
33108;SDS011;19481;51.118;6.940;2023-03-22T01:37:20;8.68;;;5.10;;
33108;SDS011;19481;51.118;6.940;2023-03-22T01:42:28;6.53;;;4.18;;
33108;SDS011;19481;51.118;6.940;2023-03-22T01:47:29;6.72;;;4.70;;
33108;SDS011;19481;51.118;6.940;2023-03-22T01:52:33;9.93;;;5.50;;
33108;SDS011;19481;51.118;6.940;2023-03-22T01:57:38;8.25;;;5.22;;
33108;SDS011;19481;51.118;6.940;2023-03-22T02:02:43;6.25;;;5.10;;
33108;SDS011;19481;51.118;6.940;2023-03-22T02:07:47;12.70;;;5.25;;
33108;SDS011;19481;51.118;6.940;2023-03-22T02:13:00;9.30;;;5.22;;
33108;SDS011;19481;51.118;6.940;2023-03-22T02:18:20;6.03;;;4.40;;
33108;SDS011;19481;51.118;6.940;2023-03-22T02:23:36;6.95;;;4.43;;
33108;SDS011;19481;51.118;6.940;2023-03-22T02:29:04;5.95;;;4.82;;
33108;SDS011;19481;51.118;6.940;2023-03-22T02:34:25;8.10;;;5.88;;
33108;SDS011;19481;51.118;6.940;2023-03-22T02:39:50;8.02;;;5.22;;
33108;SDS011;19481;51.118;6.940;2023-03-22T02:44:57;8.30;;;5.57;;
33108;SDS011;19481;51.118;6.940;2023-03-22T02:50:02;6.82;;;4.93;;
33108;SDS011;19481;51.118;6.940;2023-03-22T03:00:15;7.53;;;4.68;;
33108;SDS011;19481;51.118;6.940;2023-03-22T03:05:19;6.25;;;4.90;;
33108;SDS011;19481;51.118;6.940;2023-03-22T03:10:23;7.95;;;4.65;;
33108;SDS011;19481;51.118;6.940;2023-03-22T03:15:27;9.63;;;4.70;;
33108;SDS011;19481;51.118;6.940;2023-03-22T03:20:31;7.60;;;4.25;;
33108;SDS011;19481;51.118;6.940;2023-03-22T03:25:44;8.52;;;4.68;;
33108;SDS011;19481;51.118;6.940;2023-03-22T03:30:52;8.07;;;4.50;;
33108;SDS011;19481;51.118;6.940;2023-03-22T03:35:59;6.45;;;4.63;;
33108;SDS011;19481;51.118;6.940;2023-03-22T03:41:05;5.30;;;4.65;;
33108;SDS011;19481;51.118;6.940;2023-03-22T03:46:10;11.45;;;4.80;;
33108;SDS011;19481;51.118;6.940;2023-03-22T03:51:12;6.93;;;4.90;;
33108;SDS011;19481;51.118;6.940;2023-03-22T03:56:15;7.90;;;5.40;;
33108;SDS011;19481;51.118;6.940;2023-03-22T04:01:17;11.30;;;4.97;;
33108;SDS011;19481;51.118;6.940;2023-03-22T04:06:19;6.15;;;4.57;;
33108;SDS011;19481;51.118;6.940;2023-03-22T04:11:23;7.28;;;4.82;;
33108;SDS011;19481;51.118;6.940;2023-03-22T04:16:24;8.57;;;5.32;;
33108;SDS011;19481;51.118;6.940;2023-03-22T04:21:26;7.82;;;4.68;;
33108;SDS011;19481;51.118;6.940;2023-03-22T04:26:29;7.93;;;4.57;;
33108;SDS011;19481;51.118;6.940;2023-03-22T04:31:31;8.38;;;4.95;;
33108;SDS011;19481;51.118;6.940;2023-03-22T04:36:36;6.63;;;4.82;;
33108;SDS011;19481;51.118;6.940;2023-03-22T04:41:40;5.95;;;4.57;;
33108;SDS011;19481;51.118;6.940;2023-03-22T04:46:42;9.38;;;4.85;;
33108;SDS011;19481;51.118;6.940;2023-03-22T04:51:44;7.97;;;4.90;;
33108;SDS011;19481;51.118;6.940;2023-03-22T04:56:47;9.52;;;5.13;;
33108;SDS011;19481;51.118;6.940;2023-03-22T05:01:49;6.40;;;4.60;;
33108;SDS011;19481;51.118;6.940;2023-03-22T05:06:52;9.23;;;4.35;;
33108;SDS011;19481;51.118;6.940;2023-03-22T05:11:55;7.13;;;5.32;;
33108;SDS011;19481;51.118;6.940;2023-03-22T05:16:57;8.68;;;4.95;;
33108;SDS011;19481;51.118;6.940;2023-03-22T05:22:16;8.20;;;5.10;;
33108;SDS011;19481;51.118;6.940;2023-03-22T05:27:19;5.38;;;4.32;;
33108;SDS011;19481;51.118;6.940;2023-03-22T05:32:30;8.70;;;4.68;;
33108;SDS011;19481;51.118;6.940;2023-03-22T05:37:31;9.38;;;4.85;;
33108;SDS011;19481;51.118;6.940;2023-03-22T05:42:34;9.23;;;5.85;;
33108;SDS011;19481;51.118;6.940;2023-03-22T05:47:36;9.48;;;5.15;;
33108;SDS011;19481;51.118;6.940;2023-03-22T05:52:38;7.70;;;5.40;;
33108;SDS011;19481;51.118;6.940;2023-03-22T05:57:43;8.18;;;5.72;;
33108;SDS011;19481;51.118;6.940;2023-03-22T06:02:47;6.07;;;4.70;;
33108;SDS011;19481;51.118;6.940;2023-03-22T06:07:51;8.98;;;5.35;;
33108;SDS011;19481;51.118;6.940;2023-03-22T06:12:54;7.40;;;4.95;;
33108;SDS011;19481;51.118;6.940;2023-03-22T06:17:55;7.88;;;5.25;;
33108;SDS011;19481;51.118;6.940;2023-03-22T06:22:57;7.47;;;4.78;;
33108;SDS011;19481;51.118;6.940;2023-03-22T06:28:00;7.30;;;4.43;;
33108;SDS011;19481;51.118;6.940;2023-03-22T06:33:02;10.13;;;5.15;;
33108;SDS011;19481;51.118;6.940;2023-03-22T06:38:05;9.35;;;5.10;;
33108;SDS011;19481;51.118;6.940;2023-03-22T06:43:08;7.43;;;4.80;;
33108;SDS011;19481;51.118;6.940;2023-03-22T06:48:09;7.85;;;4.60;;
33108;SDS011;19481;51.118;6.940;2023-03-22T06:53:11;10.65;;;4.80;;
33108;SDS011;19481;51.118;6.940;2023-03-22T06:58:14;8.02;;;3.85;;
33108;SDS011;19481;51.118;6.940;2023-03-22T07:03:15;6.55;;;4.15;;
33108;SDS011;19481;51.118;6.940;2023-03-22T07:08:17;5.05;;;3.60;;
33108;SDS011;19481;51.118;6.940;2023-03-22T07:13:20;5.43;;;3.67;;
33108;SDS011;19481;51.118;6.940;2023-03-22T07:18:21;6.38;;;3.88;;
33108;SDS011;19481;51.118;6.940;2023-03-22T07:23:23;10.45;;;4.55;;
33108;SDS011;19481;51.118;6.940;2023-03-22T07:28:26;6.07;;;3.50;;
33108;SDS011;19481;51.118;6.940;2023-03-22T07:33:28;13.13;;;3.70;;
33108;SDS011;19481;51.118;6.940;2023-03-22T07:38:30;6.63;;;3.63;;
33108;SDS011;19481;51.118;6.940;2023-03-22T07:43:33;4.03;;;2.72;;
33108;SDS011;19481;51.118;6.940;2023-03-22T07:48:34;2.92;;;2.63;;
33108;SDS011;19481;51.118;6.940;2023-03-22T07:53:38;7.25;;;2.55;;
33108;SDS011;19481;51.118;6.940;2023-03-22T07:58:40;4.35;;;2.22;;
33108;SDS011;19481;51.118;6.940;2023-03-22T08:03:42;3.45;;;2.08;;
33108;SDS011;19481;51.118;6.940;2023-03-22T08:08:44;2.92;;;1.90;;
33108;SDS011;19481;51.118;6.940;2023-03-22T08:13:47;9.48;;;1.88;;
33108;SDS011;19481;51.118;6.940;2023-03-22T08:18:48;5.38;;;1.55;;
33108;SDS011;19481;51.118;6.940;2023-03-22T08:23:50;3.80;;;1.75;;
33108;SDS011;19481;51.118;6.940;2023-03-22T08:28:53;3.35;;;1.58;;
33108;SDS011;19481;51.118;6.940;2023-03-22T08:33:55;3.28;;;1.33;;
33108;SDS011;19481;51.118;6.940;2023-03-22T08:38:56;3.25;;;1.55;;
33108;SDS011;19481;51.118;6.940;2023-03-22T08:43:59;4.15;;;1.23;;
33108;SDS011;19481;51.118;6.940;2023-03-22T08:49:01;7.88;;;1.20;;
33108;SDS011;19481;51.118;6.940;2023-03-22T08:54:03;2.28;;;0.90;;
33108;SDS011;19481;51.118;6.940;2023-03-22T08:59:07;0.90;;;0.82;;
33108;SDS011;19481;51.118;6.940;2023-03-22T09:04:09;1.75;;;1.00;;
33108;SDS011;19481;51.118;6.940;2023-03-22T09:09:11;1.00;;;0.55;;
33108;SDS011;19481;51.118;6.940;2023-03-22T09:14:14;2.55;;;1.00;;
33108;SDS011;19481;51.118;6.940;2023-03-22T09:19:16;1.45;;;0.70;;
33108;SDS011;19481;51.118;6.940;2023-03-22T09:24:17;2.17;;;0.98;;
33108;SDS011;19481;51.118;6.940;2023-03-22T09:29:20;3.03;;;0.85;;
33108;SDS011;19481;51.118;6.940;2023-03-22T09:34:22;1.45;;;0.82;;
33108;SDS011;19481;51.118;6.940;2023-03-22T09:39:24;1.75;;;0.90;;
33108;SDS011;19481;51.118;6.940;2023-03-22T09:44:31;1.65;;;0.73;;
33108;SDS011;19481;51.118;6.940;2023-03-22T09:49:35;2.93;;;0.63;;
33108;SDS011;19481;51.118;6.940;2023-03-22T09:54:40;2.60;;;0.70;;
33108;SDS011;19481;51.118;6.940;2023-03-22T09:59:46;5.45;;;1.70;;
33108;SDS011;19481;51.118;6.940;2023-03-22T10:04:56;2.65;;;0.85;;
33108;SDS011;19481;51.118;6.940;2023-03-22T10:10:06;2.38;;;0.80;;
33108;SDS011;19481;51.118;6.940;2023-03-22T10:15:12;1.27;;;0.85;;
33108;SDS011;19481;51.118;6.940;2023-03-22T10:20:18;2.05;;;0.82;;
33108;SDS011;19481;51.118;6.940;2023-03-22T10:25:30;1.40;;;1.00;;
33108;SDS011;19481;51.118;6.940;2023-03-22T10:30:36;1.52;;;0.80;;
33108;SDS011;19481;51.118;6.940;2023-03-22T10:35:41;1.40;;;0.80;;
33108;SDS011;19481;51.118;6.940;2023-03-22T10:40:44;1.25;;;0.98;;
33108;SDS011;19481;51.118;6.940;2023-03-22T10:45:47;3.22;;;0.95;;
33108;SDS011;19481;51.118;6.940;2023-03-22T10:50:52;1.52;;;0.85;;
33108;SDS011;19481;51.118;6.940;2023-03-22T10:55:55;2.92;;;0.80;;
33108;SDS011;19481;51.118;6.940;2023-03-22T11:00:58;2.05;;;0.80;;
33108;SDS011;19481;51.118;6.940;2023-03-22T11:06:06;1.88;;;0.75;;
33108;SDS011;19481;51.118;6.940;2023-03-22T11:11:14;1.00;;;0.70;;
33108;SDS011;19481;51.118;6.940;2023-03-22T11:16:20;0.75;;;0.60;;
33108;SDS011;19481;51.118;6.940;2023-03-22T11:21:24;2.47;;;0.80;;
33108;SDS011;19481;51.118;6.940;2023-03-22T11:26:31;2.27;;;0.90;;
33108;SDS011;19481;51.118;6.940;2023-03-22T11:36:58;1.67;;;0.77;;
33108;SDS011;19481;51.118;6.940;2023-03-22T11:42:01;2.55;;;0.93;;
33108;SDS011;19481;51.118;6.940;2023-03-22T11:47:07;2.47;;;0.90;;
33108;SDS011;19481;51.118;6.940;2023-03-22T11:52:13;2.03;;;0.95;;
33108;SDS011;19481;51.118;6.940;2023-03-22T11:57:18;3.80;;;1.17;;
33108;SDS011;19481;51.118;6.940;2023-03-22T12:02:25;2.97;;;1.10;;
33108;SDS011;19481;51.118;6.940;2023-03-22T12:07:29;4.50;;;1.17;;
33108;SDS011;19481;51.118;6.940;2023-03-22T12:12:34;2.17;;;0.98;;
33108;SDS011;19481;51.118;6.940;2023-03-22T12:17:40;2.35;;;1.00;;
33108;SDS011;19481;51.118;6.940;2023-03-22T12:22:46;2.53;;;0.90;;
33108;SDS011;19481;51.118;6.940;2023-03-22T12:27:52;1.75;;;0.90;;
33108;SDS011;19481;51.118;6.940;2023-03-22T12:32:57;2.70;;;1.00;;
33108;SDS011;19481;51.118;6.940;2023-03-22T12:38:05;1.98;;;1.27;;
33108;SDS011;19481;51.118;6.940;2023-03-22T12:43:24;3.35;;;1.25;;
33108;SDS011;19481;51.118;6.940;2023-03-22T12:48:37;2.90;;;0.98;;
33108;SDS011;19481;51.118;6.940;2023-03-22T12:53:43;2.60;;;0.98;;
33108;SDS011;19481;51.118;6.940;2023-03-22T12:58:48;2.50;;;0.85;;
33108;SDS011;19481;51.118;6.940;2023-03-22T13:03:54;7.53;;;1.48;;
33108;SDS011;19481;51.118;6.940;2023-03-22T13:09:00;1.17;;;0.95;;
33108;SDS011;19481;51.118;6.940;2023-03-22T13:19:41;1.95;;;1.00;;
33108;SDS011;19481;51.118;6.940;2023-03-22T13:25:06;4.03;;;1.13;;
33108;SDS011;19481;51.118;6.940;2023-03-22T13:30:26;4.75;;;1.05;;
33108;SDS011;19481;51.118;6.940;2023-03-22T13:35:39;4.38;;;1.10;;
33108;SDS011;19481;51.118;6.940;2023-03-22T13:40:44;1.98;;;1.15;;
33108;SDS011;19481;51.118;6.940;2023-03-22T13:51:31;4.97;;;1.00;;
33108;SDS011;19481;51.118;6.940;2023-03-22T13:56:45;1.73;;;0.98;;
33108;SDS011;19481;51.118;6.940;2023-03-22T14:01:52;3.72;;;1.02;;
33108;SDS011;19481;51.118;6.940;2023-03-22T14:06:59;2.83;;;1.10;;
33108;SDS011;19481;51.118;6.940;2023-03-22T14:12:07;3.13;;;1.13;;
33108;SDS011;19481;51.118;6.940;2023-03-22T14:17:19;1.67;;;1.10;;
33108;SDS011;19481;51.118;6.940;2023-03-22T14:22:32;3.75;;;1.17;;
33108;SDS011;19481;51.118;6.940;2023-03-22T14:27:39;4.55;;;1.02;;
33108;SDS011;19481;51.118;6.940;2023-03-22T14:32:41;1.63;;;1.00;;
33108;SDS011;19481;51.118;6.940;2023-03-22T14:37:45;2.45;;;0.80;;
33108;SDS011;19481;51.118;6.940;2023-03-22T14:42:48;1.77;;;0.90;;
33108;SDS011;19481;51.118;6.940;2023-03-22T14:47:49;3.50;;;0.90;;
33108;SDS011;19481;51.118;6.940;2023-03-22T14:52:53;3.08;;;1.05;;
33108;SDS011;19481;51.118;6.940;2023-03-22T14:57:55;5.65;;;1.02;;
33108;SDS011;19481;51.118;6.940;2023-03-22T15:03:00;3.15;;;1.10;;
33108;SDS011;19481;51.118;6.940;2023-03-22T15:08:07;2.22;;;0.90;;
33108;SDS011;19481;51.118;6.940;2023-03-22T15:13:10;3.83;;;1.15;;
33108;SDS011;19481;51.118;6.940;2023-03-22T15:18:13;6.10;;;1.00;;
33108;SDS011;19481;51.118;6.940;2023-03-22T15:23:20;1.83;;;0.95;;
33108;SDS011;19481;51.118;6.940;2023-03-22T15:28:24;2.88;;;1.00;;
33108;SDS011;19481;51.118;6.940;2023-03-22T15:33:30;6.10;;;1.17;;
33108;SDS011;19481;51.118;6.940;2023-03-22T15:38:37;1.35;;;0.90;;
33108;SDS011;19481;51.118;6.940;2023-03-22T15:43:40;1.40;;;0.90;;
33108;SDS011;19481;51.118;6.940;2023-03-22T15:48:43;2.45;;;0.75;;
33108;SDS011;19481;51.118;6.940;2023-03-22T15:53:47;2.60;;;0.90;;
33108;SDS011;19481;51.118;6.940;2023-03-22T15:58:51;2.90;;;0.90;;
33108;SDS011;19481;51.118;6.940;2023-03-22T16:03:54;2.83;;;1.02;;
33108;SDS011;19481;51.118;6.940;2023-03-22T16:08:58;1.70;;;1.00;;
33108;SDS011;19481;51.118;6.940;2023-03-22T16:14:00;2.63;;;0.90;;
33108;SDS011;19481;51.118;6.940;2023-03-22T16:19:02;1.58;;;0.80;;
33108;SDS011;19481;51.118;6.940;2023-03-22T16:24:06;3.65;;;0.98;;
33108;SDS011;19481;51.118;6.940;2023-03-22T16:29:08;3.88;;;1.15;;
33108;SDS011;19481;51.118;6.940;2023-03-22T16:34:10;5.20;;;1.20;;
33108;SDS011;19481;51.118;6.940;2023-03-22T16:39:13;1.95;;;0.90;;
33108;SDS011;19481;51.118;6.940;2023-03-22T16:44:15;2.58;;;1.05;;
33108;SDS011;19481;51.118;6.940;2023-03-22T16:49:17;4.05;;;1.20;;
33108;SDS011;19481;51.118;6.940;2023-03-22T16:54:20;1.15;;;1.00;;
33108;SDS011;19481;51.118;6.940;2023-03-22T16:59:22;3.63;;;0.90;;
33108;SDS011;19481;51.118;6.940;2023-03-22T17:04:23;4.35;;;1.10;;
33108;SDS011;19481;51.118;6.940;2023-03-22T17:09:26;2.08;;;1.00;;
33108;SDS011;19481;51.118;6.940;2023-03-22T17:14:28;1.55;;;1.10;;
33108;SDS011;19481;51.118;6.940;2023-03-22T17:19:29;1.55;;;1.02;;
33108;SDS011;19481;51.118;6.940;2023-03-22T17:24:32;1.20;;;0.90;;
33108;SDS011;19481;51.118;6.940;2023-03-22T17:29:35;2.35;;;0.90;;
33108;SDS011;19481;51.118;6.940;2023-03-22T17:34:37;3.20;;;1.05;;
33108;SDS011;19481;51.118;6.940;2023-03-22T17:39:40;2.88;;;1.48;;
33108;SDS011;19481;51.118;6.940;2023-03-22T17:44:42;2.63;;;1.20;;
33108;SDS011;19481;51.118;6.940;2023-03-22T17:49:44;1.95;;;1.00;;
33108;SDS011;19481;51.118;6.940;2023-03-22T17:54:47;2.88;;;1.30;;
33108;SDS011;19481;51.118;6.940;2023-03-22T17:59:48;1.52;;;1.17;;
33108;SDS011;19481;51.118;6.940;2023-03-22T18:04:50;3.15;;;1.00;;
33108;SDS011;19481;51.118;6.940;2023-03-22T18:09:53;3.80;;;1.10;;
33108;SDS011;19481;51.118;6.940;2023-03-22T18:14:55;2.40;;;0.98;;
33108;SDS011;19481;51.118;6.940;2023-03-22T18:19:57;5.03;;;1.10;;
33108;SDS011;19481;51.118;6.940;2023-03-22T18:25:00;3.53;;;1.65;;
33108;SDS011;19481;51.118;6.940;2023-03-22T18:30:02;2.80;;;1.15;;
33108;SDS011;19481;51.118;6.940;2023-03-22T18:35:05;4.10;;;1.50;;
33108;SDS011;19481;51.118;6.940;2023-03-22T18:40:09;1.98;;;1.40;;
33108;SDS011;19481;51.118;6.940;2023-03-22T18:45:15;2.38;;;1.20;;
33108;SDS011;19481;51.118;6.940;2023-03-22T18:50:17;2.03;;;1.20;;
33108;SDS011;19481;51.118;6.940;2023-03-22T18:55:20;3.42;;;1.30;;
33108;SDS011;19481;51.118;6.940;2023-03-22T19:00:22;3.28;;;1.50;;
33108;SDS011;19481;51.118;6.940;2023-03-22T19:05:26;2.70;;;1.20;;
33108;SDS011;19481;51.118;6.940;2023-03-22T19:10:29;5.80;;;1.40;;
33108;SDS011;19481;51.118;6.940;2023-03-22T19:15:30;2.92;;;1.48;;
33108;SDS011;19481;51.118;6.940;2023-03-22T19:20:32;5.28;;;1.45;;
33108;SDS011;19481;51.118;6.940;2023-03-22T19:25:35;2.42;;;1.20;;
33108;SDS011;19481;51.118;6.940;2023-03-22T19:30:37;2.10;;;1.27;;
33108;SDS011;19481;51.118;6.940;2023-03-22T19:35:41;4.53;;;1.25;;
33108;SDS011;19481;51.118;6.940;2023-03-22T19:40:45;2.33;;;1.27;;
33108;SDS011;19481;51.118;6.940;2023-03-22T19:45:47;4.78;;;1.60;;
33108;SDS011;19481;51.118;6.940;2023-03-22T19:50:48;5.57;;;1.88;;
33108;SDS011;19481;51.118;6.940;2023-03-22T19:55:52;3.80;;;1.55;;
33108;SDS011;19481;51.118;6.940;2023-03-22T20:00:53;4.50;;;1.73;;
33108;SDS011;19481;51.118;6.940;2023-03-22T20:06:00;4.43;;;1.75;;
33108;SDS011;19481;51.118;6.940;2023-03-22T20:11:04;5.82;;;1.67;;
33108;SDS011;19481;51.118;6.940;2023-03-22T20:16:07;4.00;;;1.60;;
33108;SDS011;19481;51.118;6.940;2023-03-22T20:21:08;4.05;;;1.80;;
33108;SDS011;19481;51.118;6.940;2023-03-22T20:26:11;2.28;;;1.52;;
33108;SDS011;19481;51.118;6.940;2023-03-22T20:31:13;4.82;;;1.98;;
33108;SDS011;19481;51.118;6.940;2023-03-22T20:36:16;5.15;;;1.98;;
33108;SDS011;19481;51.118;6.940;2023-03-22T20:41:19;3.58;;;1.90;;
33108;SDS011;19481;51.118;6.940;2023-03-22T20:46:21;2.97;;;1.83;;
33108;SDS011;19481;51.118;6.940;2023-03-22T20:51:23;2.50;;;1.88;;
33108;SDS011;19481;51.118;6.940;2023-03-22T20:56:26;6.25;;;1.90;;
33108;SDS011;19481;51.118;6.940;2023-03-22T21:01:28;2.75;;;1.80;;
33108;SDS011;19481;51.118;6.940;2023-03-22T21:06:29;5.15;;;2.10;;
33108;SDS011;19481;51.118;6.940;2023-03-22T21:11:34;4.10;;;1.90;;
33108;SDS011;19481;51.118;6.940;2023-03-22T21:16:36;2.42;;;1.83;;
33108;SDS011;19481;51.118;6.940;2023-03-22T21:21:42;4.85;;;1.90;;
33108;SDS011;19481;51.118;6.940;2023-03-22T21:26:45;3.85;;;1.80;;
33108;SDS011;19481;51.118;6.940;2023-03-22T21:31:47;2.38;;;1.60;;
33108;SDS011;19481;51.118;6.940;2023-03-22T21:36:49;2.63;;;1.70;;
33108;SDS011;19481;51.118;6.940;2023-03-22T21:41:52;3.95;;;2.00;;
33108;SDS011;19481;51.118;6.940;2023-03-22T21:46:54;5.10;;;1.80;;
33108;SDS011;19481;51.118;6.940;2023-03-22T21:51:57;3.67;;;1.55;;
33108;SDS011;19481;51.118;6.940;2023-03-22T21:57:03;3.33;;;2.13;;
33108;SDS011;19481;51.118;6.940;2023-03-22T22:02:05;4.70;;;2.10;;
33108;SDS011;19481;51.118;6.940;2023-03-22T22:07:07;3.63;;;1.70;;
33108;SDS011;19481;51.118;6.940;2023-03-22T22:12:10;1.75;;;1.33;;
33108;SDS011;19481;51.118;6.940;2023-03-22T22:17:12;3.35;;;1.80;;
33108;SDS011;19481;51.118;6.940;2023-03-22T22:22:13;3.97;;;1.52;;
33108;SDS011;19481;51.118;6.940;2023-03-22T22:27:17;2.58;;;1.60;;
33108;SDS011;19481;51.118;6.940;2023-03-22T22:32:19;6.30;;;1.85;;
33108;SDS011;19481;51.118;6.940;2023-03-22T22:37:21;2.20;;;1.48;;
33108;SDS011;19481;51.118;6.940;2023-03-22T22:42:24;2.30;;;1.40;;
33108;SDS011;19481;51.118;6.940;2023-03-22T22:47:25;3.80;;;1.48;;
33108;SDS011;19481;51.118;6.940;2023-03-22T22:52:32;2.47;;;1.27;;
33108;SDS011;19481;51.118;6.940;2023-03-22T22:57:36;1.93;;;1.50;;
33108;SDS011;19481;51.118;6.940;2023-03-22T23:02:38;4.45;;;1.65;;
33108;SDS011;19481;51.118;6.940;2023-03-22T23:07:40;4.43;;;1.45;;
33108;SDS011;19481;51.118;6.940;2023-03-22T23:12:43;2.55;;;1.30;;
33108;SDS011;19481;51.118;6.940;2023-03-22T23:17:45;2.38;;;1.30;;
33108;SDS011;19481;51.118;6.940;2023-03-22T23:22:51;2.58;;;1.25;;
33108;SDS011;19481;51.118;6.940;2023-03-22T23:27:56;2.53;;;1.33;;
33108;SDS011;19481;51.118;6.940;2023-03-22T23:33:02;1.77;;;1.60;;
33108;SDS011;19481;51.118;6.940;2023-03-22T23:38:03;5.03;;;3.42;;
33108;SDS011;19481;51.118;6.940;2023-03-22T23:43:06;1.08;;;1.00;;
33108;SDS011;19481;51.118;6.940;2023-03-22T23:48:08;4.18;;;1.40;;
33108;SDS011;19481;51.118;6.940;2023-03-22T23:53:10;1.58;;;1.35;;
33108;SDS011;19481;51.118;6.940;2023-03-22T23:58:13;4.07;;;1.13;;
